createdAt,value
2023-11-07T00:00:18.024Z,1.60
2023-11-07T00:02:44.533Z,1.95
2023-11-07T00:05:11.151Z,2.15
2023-11-07T00:07:37.852Z,1.51
2023-11-07T00:10:04.431Z,1.17
2023-11-07T00:12:30.943Z,1.42
2023-11-07T00:14:57.438Z,1.45
2023-11-07T00:17:23.919Z,1.49
2023-11-07T00:19:50.401Z,1.58
2023-11-07T00:22:16.851Z,1.53
2023-11-07T00:24:43.323Z,1.41
2023-11-07T00:27:09.808Z,1.39
2023-11-07T00:29:36.273Z,1.46
2023-11-07T00:32:02.798Z,1.68
2023-11-07T00:34:29.366Z,1.30
2023-11-07T00:36:55.936Z,1.41
2023-11-07T00:39:22.403Z,1.33
2023-11-07T00:41:48.964Z,1.45
2023-11-07T00:44:15.467Z,1.53
2023-11-07T00:46:42.037Z,1.25
2023-11-07T00:49:08.582Z,1.35
2023-11-07T00:51:35.183Z,1.40
2023-11-07T00:54:01.699Z,1.00
2023-11-07T00:56:28.211Z,1.29
2023-11-07T00:58:55.823Z,1.48
2023-11-07T01:01:22.318Z,1.53
2023-11-07T01:03:48.877Z,1.32
2023-11-07T01:06:15.648Z,1.59
2023-11-07T01:08:42.179Z,1.28
2023-11-07T01:11:08.637Z,1.36
2023-11-07T01:13:35.095Z,1.34
2023-11-07T01:16:01.551Z,1.52
2023-11-07T01:18:28.179Z,1.55
2023-11-07T01:20:54.696Z,1.39
2023-11-07T01:23:21.157Z,1.30
2023-11-07T01:25:47.622Z,1.23
2023-11-07T01:28:14.105Z,1.24
2023-11-07T01:30:40.578Z,1.22
2023-11-07T01:33:07.225Z,1.27
2023-11-07T01:35:33.911Z,1.40
2023-11-07T01:38:00.407Z,1.17
2023-11-07T01:40:26.954Z,1.38
2023-11-07T01:42:53.392Z,1.17
2023-11-07T01:45:19.844Z,1.37
2023-11-07T01:47:46.583Z,1.42
2023-11-07T01:50:13.163Z,1.30
2023-11-07T01:52:39.721Z,1.33
2023-11-07T01:55:06.183Z,1.30
2023-11-07T01:57:32.617Z,1.36
2023-11-07T01:59:59.096Z,1.47
2023-11-07T02:02:25.641Z,1.47
2023-11-07T02:04:52.199Z,1.52
2023-11-07T02:07:18.742Z,1.48
2023-11-07T02:09:45.189Z,1.52
2023-11-07T02:12:11.765Z,1.38
2023-11-07T02:14:38.428Z,1.33
2023-11-07T02:17:05.107Z,1.37
2023-11-07T02:19:31.625Z,1.39
2023-11-07T02:21:58.103Z,1.52
2023-11-07T02:24:24.607Z,1.52
2023-11-07T02:26:51.175Z,1.20
2023-11-07T02:29:17.797Z,1.30
2023-11-07T02:31:44.274Z,1.41
2023-11-07T02:34:10.829Z,1.45
2023-11-07T02:36:37.322Z,1.33
2023-11-07T02:39:03.790Z,1.41
2023-11-07T02:41:30.315Z,1.41
2023-11-07T02:43:56.840Z,1.31
2023-11-07T02:46:23.343Z,1.19
2023-11-07T02:48:49.919Z,1.30
2023-11-07T02:51:16.430Z,1.33
2023-11-07T02:53:42.913Z,1.38
2023-11-07T02:56:09.393Z,1.22
2023-11-07T02:58:35.877Z,1.26
2023-11-07T03:01:02.431Z,1.12
2023-11-07T03:03:28.972Z,1.47
2023-11-07T03:05:55.579Z,1.13
2023-11-07T03:08:22.096Z,1.20
2023-11-07T03:10:48.628Z,1.19
2023-11-07T03:13:15.112Z,1.25
2023-11-07T03:15:41.568Z,1.16
2023-11-07T03:18:08.380Z,1.26
2023-11-07T03:20:34.957Z,1.32
2023-11-07T03:23:01.393Z,1.38
2023-11-07T03:25:27.863Z,1.08
2023-11-07T03:27:54.306Z,1.14
2023-11-07T03:30:20.795Z,1.04
2023-11-07T03:32:47.313Z,1.16
2023-11-07T03:35:13.788Z,1.25
2023-11-07T03:37:40.243Z,1.11
2023-11-07T03:40:06.827Z,1.06
2023-11-07T03:42:33.366Z,1.21
2023-11-07T03:44:59.847Z,1.20
2023-11-07T03:47:26.350Z,1.18
2023-11-07T03:49:52.844Z,1.09
2023-11-07T03:52:19.284Z,1.04
2023-11-07T03:54:45.725Z,0.99
2023-11-07T03:57:12.220Z,1.02
2023-11-07T03:59:38.720Z,1.09
2023-11-07T04:02:05.225Z,1.00
2023-11-07T04:04:31.711Z,0.97
2023-11-07T04:06:58.268Z,1.07
2023-11-07T04:09:24.760Z,0.98
2023-11-07T04:11:51.296Z,0.99
2023-11-07T04:14:17.760Z,0.93
2023-11-07T04:16:44.221Z,0.98
2023-11-07T04:19:10.750Z,0.92
2023-11-07T04:21:37.301Z,0.95
2023-11-07T04:24:03.829Z,0.92
2023-11-07T04:26:30.316Z,1.05
2023-11-07T04:28:56.774Z,0.95
2023-11-07T04:31:23.216Z,0.99
2023-11-07T04:33:49.719Z,1.03
2023-11-07T04:36:16.274Z,0.96
2023-11-07T04:38:42.886Z,0.86
2023-11-07T04:41:09.443Z,1.09
2023-11-07T04:43:35.882Z,1.08
2023-11-07T04:46:02.351Z,1.01
2023-11-07T04:48:28.911Z,1.02
2023-11-07T04:50:55.427Z,1.20
2023-11-07T04:53:21.897Z,0.94
2023-11-07T04:55:48.392Z,1.15
2023-11-07T04:58:14.838Z,1.08
2023-11-07T05:00:41.309Z,0.80
2023-11-07T05:03:07.983Z,0.90
2023-11-07T05:05:34.620Z,1.22
2023-11-07T05:08:01.136Z,0.89
2023-11-07T05:10:27.600Z,0.97
2023-11-07T05:12:54.060Z,0.98
2023-11-07T05:15:20.541Z,0.85
2023-11-07T05:17:47.125Z,0.95
2023-11-07T05:20:13.772Z,0.93
2023-11-07T05:22:40.303Z,0.96
2023-11-07T05:25:06.742Z,1.15
2023-11-07T05:27:33.377Z,0.91
2023-11-07T05:29:59.934Z,0.97
2023-11-07T05:32:26.524Z,1.05
2023-11-07T05:34:52.984Z,0.95
2023-11-07T05:37:19.409Z,0.98
2023-11-07T05:39:45.860Z,1.19
2023-11-07T05:42:12.403Z,1.30
2023-11-07T05:44:38.907Z,0.92
2023-11-07T05:47:05.416Z,1.03
2023-11-07T05:49:31.973Z,0.97
2023-11-07T05:51:58.468Z,1.23
2023-11-07T05:54:24.947Z,1.02
2023-11-07T05:56:51.454Z,0.96
2023-11-07T05:59:17.957Z,0.96
2023-11-07T06:01:44.379Z,0.87
2023-11-07T06:04:10.882Z,0.94
2023-11-07T06:06:37.401Z,0.92
2023-11-07T06:09:03.963Z,1.18
2023-11-07T06:11:30.467Z,1.35
2023-11-07T06:13:56.932Z,2.13
2023-11-07T06:16:23.697Z,1.16
2023-11-07T06:18:50.340Z,1.39
2023-11-07T06:21:16.893Z,1.43
2023-11-07T06:23:43.375Z,1.47
2023-11-07T06:26:10.095Z,1.45
2023-11-07T06:28:36.573Z,1.61
2023-11-07T06:31:03.050Z,1.43
2023-11-07T06:33:29.578Z,1.51
2023-11-07T06:35:56.290Z,1.47
2023-11-07T06:38:22.849Z,1.49
2023-11-07T06:40:49.383Z,1.45
2023-11-07T06:43:15.927Z,1.46
2023-11-07T06:45:42.434Z,1.64
2023-11-07T06:48:09.068Z,1.45
2023-11-07T06:50:35.729Z,1.39
2023-11-07T06:53:02.164Z,1.27
2023-11-07T06:55:28.929Z,1.36
2023-11-07T06:57:55.422Z,1.18
2023-11-07T07:00:21.949Z,1.39
2023-11-07T07:02:48.557Z,1.36
2023-11-07T07:05:15.284Z,1.46
2023-11-07T07:07:41.827Z,1.22
2023-11-07T07:10:08.308Z,1.57
2023-11-07T07:12:34.739Z,1.76
2023-11-07T07:15:01.267Z,1.57
2023-11-07T07:17:27.826Z,1.80
2023-11-07T07:19:54.331Z,9.71
2023-11-07T07:22:20.810Z,19.92
2023-11-07T07:24:47.248Z,2.26
2023-11-07T07:27:13.744Z,1.97
2023-11-07T07:29:40.239Z,1.37
2023-11-07T07:32:06.714Z,1.77
2023-11-07T07:34:33.217Z,1.66
2023-11-07T07:36:59.798Z,1.63
2023-11-07T07:39:26.478Z,3.04
2023-11-07T07:41:53.022Z,2.12
2023-11-07T07:44:19.579Z,1.60
2023-11-07T07:46:46.001Z,1.40
2023-11-07T07:49:12.685Z,1.84
2023-11-07T07:51:39.235Z,1.42
2023-11-07T07:54:09.889Z,1.33
2023-11-07T07:56:42.966Z,1.35
2023-11-07T07:59:09.920Z,1.57
2023-11-07T08:01:36.524Z,1.40
2023-11-07T08:04:02.996Z,1.47
2023-11-07T08:06:29.544Z,1.26
2023-11-07T08:08:56.081Z,1.44
2023-11-07T08:11:22.657Z,1.41
2023-11-07T08:13:49.128Z,1.36
2023-11-07T08:16:15.560Z,1.30
2023-11-07T08:18:42.152Z,1.27
2023-11-07T08:21:08.705Z,1.22
2023-11-07T08:23:35.182Z,1.46
2023-11-07T08:26:01.737Z,1.68
2023-11-07T08:28:28.188Z,1.74
2023-11-07T08:30:54.638Z,1.37
2023-11-07T08:33:21.243Z,1.44
2023-11-07T08:35:47.739Z,1.30
2023-11-07T08:38:14.222Z,1.07
2023-11-07T08:40:40.702Z,1.36
2023-11-07T08:43:07.243Z,1.80
2023-11-07T08:45:34.622Z,1.16
2023-11-07T08:48:01.557Z,1.30
2023-11-07T08:50:28.113Z,1.15
2023-11-07T08:52:54.605Z,1.49
2023-11-07T08:55:21.131Z,1.61
2023-11-07T08:57:47.689Z,1.43
2023-11-07T09:00:14.292Z,1.50
2023-11-07T09:02:40.985Z,1.45
2023-11-07T09:05:07.571Z,1.26
2023-11-07T09:07:34.029Z,1.46
2023-11-07T09:10:00.580Z,1.21
2023-11-07T09:12:27.083Z,1.35
2023-11-07T09:14:53.583Z,1.43
2023-11-07T09:17:20.164Z,1.72
2023-11-07T09:19:46.727Z,1.77
2023-11-07T09:22:13.196Z,1.31
2023-11-07T09:24:39.645Z,1.39
2023-11-07T09:27:06.241Z,1.61
2023-11-07T09:29:32.708Z,1.58
2023-11-07T09:31:59.448Z,1.47
2023-11-07T09:34:26.155Z,1.50
2023-11-07T09:36:52.712Z,1.38
2023-11-07T09:39:19.238Z,1.37
2023-11-07T09:41:45.746Z,1.20
2023-11-07T09:44:12.821Z,1.44
2023-11-07T09:46:39.338Z,1.43
2023-11-07T09:49:05.996Z,1.42
2023-11-07T09:51:32.619Z,1.49
2023-11-07T09:53:59.135Z,1.33
2023-11-07T09:56:25.653Z,1.20
2023-11-07T09:58:52.674Z,1.39
2023-11-07T10:01:20.482Z,1.43
2023-11-07T10:03:47.607Z,2.08
2023-11-07T10:06:14.259Z,3.97
2023-11-07T10:08:40.766Z,2.09
2023-11-07T10:11:07.221Z,1.60
2023-11-07T10:13:33.699Z,1.37
2023-11-07T10:16:06.716Z,2.03
2023-11-07T10:18:36.660Z,2.24
2023-11-07T10:21:03.330Z,1.48
2023-11-07T10:23:31.503Z,2.33
2023-11-07T10:25:57.942Z,1.36
2023-11-07T10:28:24.544Z,1.93
2023-11-07T10:31:00.618Z,1.43
2023-11-07T10:33:27.269Z,1.18
2023-11-07T10:35:53.948Z,1.37
2023-11-07T10:38:26.654Z,1.17
2023-11-07T10:40:53.246Z,1.32
2023-11-07T10:43:19.769Z,1.21
2023-11-07T10:45:46.216Z,1.40
2023-11-07T10:48:12.980Z,1.63
2023-11-07T10:50:39.608Z,1.61
2023-11-07T10:53:06.244Z,1.15
2023-11-07T10:55:32.745Z,1.52
2023-11-07T10:57:59.397Z,1.92
2023-11-07T11:00:25.888Z,1.46
2023-11-07T11:02:52.452Z,1.12
2023-11-07T11:05:21.830Z,1.37
2023-11-07T11:07:48.381Z,1.38
2023-11-07T11:10:14.992Z,1.42
2023-11-07T11:12:41.452Z,1.58
2023-11-07T11:15:08.046Z,1.62
2023-11-07T11:17:34.777Z,1.68
2023-11-07T11:20:01.406Z,1.27
2023-11-07T11:22:27.925Z,1.73
2023-11-07T11:24:54.597Z,1.67
2023-11-07T11:27:21.258Z,2.28
2023-11-07T11:29:50.632Z,1.45
2023-11-07T11:32:17.227Z,1.26
2023-11-07T11:34:45.511Z,1.54
2023-11-07T11:37:12.323Z,1.65
2023-11-07T11:39:38.864Z,1.93
2023-11-07T11:42:05.452Z,2.41
2023-11-07T11:44:32.027Z,1.37
2023-11-07T11:46:58.545Z,1.91
2023-11-07T11:49:25.245Z,1.74
2023-11-07T11:51:51.814Z,1.31
2023-11-07T11:54:18.555Z,1.51
2023-11-07T11:56:45.084Z,1.05
2023-11-07T11:59:11.597Z,0.83
2023-11-07T12:01:38.426Z,1.24
2023-11-07T12:04:05.323Z,1.13
2023-11-07T12:06:31.960Z,0.99
2023-11-07T12:08:58.674Z,1.03
2023-11-07T12:11:32.639Z,1.11
2023-11-07T12:14:03.744Z,1.28
2023-11-07T12:16:30.220Z,1.25
2023-11-07T12:18:56.867Z,2.67
2023-11-07T12:21:23.525Z,1.74
2023-11-07T12:23:50.336Z,1.63
2023-11-07T12:26:16.849Z,1.36
2023-11-07T12:28:43.363Z,1.45
2023-11-07T12:31:17.230Z,1.58
2023-11-07T12:33:50.059Z,1.70
2023-11-07T12:36:16.699Z,2.18
2023-11-07T12:38:43.275Z,1.93
2023-11-07T12:41:09.829Z,2.25
2023-11-07T12:43:36.357Z,2.02
2023-11-07T12:46:02.802Z,2.23
2023-11-07T12:48:29.577Z,2.17
2023-11-07T12:50:56.094Z,2.13
2023-11-07T12:53:22.540Z,1.66
2023-11-07T12:55:48.978Z,1.55
2023-11-07T12:58:15.635Z,1.61
2023-11-07T13:00:43.043Z,1.43
2023-11-07T13:03:10.830Z,1.41
2023-11-07T13:05:37.393Z,1.23
2023-11-07T13:08:03.904Z,1.75
2023-11-07T13:10:30.363Z,1.47
2023-11-07T13:12:56.819Z,1.18
2023-11-07T13:15:23.471Z,1.08
2023-11-07T13:17:50.049Z,1.71
2023-11-07T13:20:16.561Z,1.06
2023-11-07T13:22:43.102Z,1.07
2023-11-07T13:25:09.605Z,1.08
2023-11-07T13:27:36.074Z,1.44
2023-11-07T13:30:02.632Z,0.98
2023-11-07T13:32:29.213Z,1.00
2023-11-07T13:34:55.806Z,1.18
2023-11-07T13:37:22.314Z,0.96
2023-11-07T13:39:48.756Z,1.06
2023-11-07T13:42:15.249Z,1.10
2023-11-07T13:44:41.704Z,0.89
2023-11-07T13:47:08.237Z,0.96
2023-11-07T13:49:36.663Z,1.11
2023-11-07T13:52:04.507Z,1.36
2023-11-07T13:54:31.094Z,1.12
2023-11-07T13:56:57.640Z,1.11
2023-11-07T13:59:24.318Z,0.95
2023-11-07T14:01:50.834Z,1.05
2023-11-07T14:04:17.418Z,1.38
2023-11-07T14:06:44.074Z,1.19
2023-11-07T14:09:10.590Z,0.96
2023-11-07T14:11:37.060Z,1.05
2023-11-07T14:14:03.569Z,1.20
2023-11-07T14:16:30.020Z,0.96
2023-11-07T14:18:56.682Z,0.85
2023-11-07T14:21:23.362Z,0.82
2023-11-07T14:23:49.940Z,1.01
2023-11-07T14:26:16.610Z,0.76
2023-11-07T14:28:50.908Z,0.85
2023-11-07T14:31:25.726Z,0.94
2023-11-07T14:33:52.355Z,1.08
2023-11-07T14:36:19.038Z,1.31
2023-11-07T14:38:45.585Z,1.22
2023-11-07T14:41:12.032Z,1.41
2023-11-07T14:43:38.495Z,1.60
2023-11-07T14:46:04.961Z,1.48
2023-11-07T14:48:31.861Z,1.49
2023-11-07T14:50:58.502Z,1.23
2023-11-07T14:53:24.982Z,0.98
2023-11-07T14:55:51.441Z,1.31
2023-11-07T14:58:17.925Z,2.11
2023-11-07T15:00:44.355Z,1.54
2023-11-07T15:03:12.053Z,1.35
2023-11-07T15:05:39.106Z,1.37
2023-11-07T15:08:05.579Z,1.24
2023-11-07T15:10:34.485Z,2.01
2023-11-07T15:13:01.042Z,2.32
2023-11-07T15:15:27.614Z,1.93
2023-11-07T15:17:54.300Z,1.93
2023-11-07T15:20:20.888Z,1.65
2023-11-07T15:22:47.319Z,1.84
2023-11-07T15:25:13.858Z,3.67
2023-11-07T15:27:40.472Z,1.88
2023-11-07T15:30:07.246Z,1.94
2023-11-07T15:32:33.773Z,2.07
2023-11-07T15:35:00.275Z,1.35
2023-11-07T15:37:26.734Z,1.46
2023-11-07T15:39:53.172Z,1.57
2023-11-07T15:42:19.807Z,1.52
2023-11-07T15:44:46.355Z,1.80
2023-11-07T15:47:13.025Z,2.03
2023-11-07T15:49:39.617Z,1.81
2023-11-07T15:52:06.087Z,1.97
2023-11-07T15:54:32.749Z,2.14
2023-11-07T15:56:59.271Z,2.16
2023-11-07T15:59:25.789Z,2.25
2023-11-07T16:01:52.268Z,3.42
2023-11-07T16:04:18.764Z,2.38
2023-11-07T16:06:45.297Z,2.14
2023-11-07T16:09:11.768Z,1.98
2023-11-07T16:11:38.237Z,2.46
2023-11-07T16:14:07.871Z,1.70
2023-11-07T16:16:34.342Z,1.71
2023-11-07T16:19:00.939Z,1.84
2023-11-07T16:21:27.478Z,1.74
2023-11-07T16:23:54.005Z,2.51
2023-11-07T16:26:20.453Z,2.97
2023-11-07T16:28:46.938Z,2.88
2023-11-07T16:31:13.399Z,2.00
2023-11-07T16:33:40.008Z,1.96
2023-11-07T16:36:06.571Z,2.22
2023-11-07T16:38:33.041Z,3.00
2023-11-07T16:40:59.566Z,3.10
2023-11-07T16:43:26.185Z,2.85
2023-11-07T16:45:52.648Z,1.96
2023-11-07T16:48:19.237Z,2.21
2023-11-07T16:50:45.774Z,2.43
2023-11-07T16:53:12.254Z,2.66
2023-11-07T16:55:38.750Z,2.40
2023-11-07T16:58:05.252Z,2.07
2023-11-07T17:00:31.924Z,1.89
2023-11-07T17:02:58.492Z,1.90
2023-11-07T17:05:25.231Z,2.60
2023-11-07T17:07:51.712Z,3.23
2023-11-07T17:10:18.278Z,4.16
2023-11-07T17:12:44.712Z,2.99
2023-11-07T17:15:11.206Z,2.79
2023-11-07T17:17:38.194Z,3.30
2023-11-07T17:20:05.151Z,3.48
2023-11-07T17:22:31.618Z,4.20
2023-11-07T17:24:58.078Z,4.16
2023-11-07T17:27:24.688Z,3.06
2023-11-07T17:29:51.185Z,3.17
2023-11-07T17:32:17.734Z,3.43
2023-11-07T17:34:44.208Z,3.63
2023-11-07T17:37:10.665Z,2.90
2023-11-07T17:39:37.168Z,3.66
2023-11-07T17:42:03.780Z,4.18
2023-11-07T17:44:30.277Z,4.46
2023-11-07T17:46:56.747Z,4.58
2023-11-07T17:49:23.349Z,4.49
2023-11-07T17:51:49.914Z,5.26
2023-11-07T17:54:16.542Z,4.76
2023-11-07T17:56:43.016Z,5.22
2023-11-07T17:59:09.547Z,4.55
2023-11-07T18:01:36.161Z,4.98
2023-11-07T18:04:02.915Z,4.72
2023-11-07T18:06:29.519Z,4.86
2023-11-07T18:08:56.107Z,4.10
2023-11-07T18:11:22.675Z,4.00
2023-11-07T18:13:49.185Z,4.09
2023-11-07T18:16:15.616Z,4.35
2023-11-07T18:18:57.326Z,4.61
2023-11-07T18:21:25.888Z,3.86
2023-11-07T18:23:52.436Z,3.87
2023-11-07T18:26:19.056Z,6.84
2023-11-07T18:28:45.524Z,5.21
2023-11-07T18:31:14.139Z,4.92
2023-11-07T18:33:40.744Z,4.98
2023-11-07T18:36:07.384Z,4.18
2023-11-07T18:38:33.846Z,3.98
2023-11-07T18:41:00.336Z,4.54
2023-11-07T18:43:26.932Z,4.59
2023-11-07T18:45:53.405Z,4.59
2023-11-07T18:48:20.069Z,4.32
2023-11-07T18:50:46.805Z,4.23
2023-11-07T18:53:13.403Z,5.56
2023-11-07T18:55:39.931Z,6.69
2023-11-07T18:58:06.350Z,7.26
2023-11-07T19:00:32.902Z,6.17
2023-11-07T19:02:59.492Z,6.61
2023-11-07T19:05:26.039Z,5.80
2023-11-07T19:07:52.516Z,6.31
2023-11-07T19:10:19.031Z,5.81
2023-11-07T19:12:45.465Z,4.67
2023-11-07T19:15:11.963Z,5.23
2023-11-07T19:17:38.458Z,6.76
2023-11-07T19:20:04.916Z,6.78
2023-11-07T19:22:31.504Z,6.47
2023-11-07T19:24:58.406Z,7.82
2023-11-07T19:27:24.911Z,7.85
2023-11-07T19:29:51.533Z,8.70
2023-11-07T19:32:18.012Z,8.08
2023-11-07T19:34:44.538Z,8.14
2023-11-07T19:37:11.197Z,8.53
2023-11-07T19:39:37.764Z,8.75
2023-11-07T19:42:04.315Z,11.21
2023-11-07T19:44:30.820Z,8.73
2023-11-07T19:46:57.289Z,8.70
2023-11-07T19:49:23.841Z,9.76
2023-11-07T19:51:50.316Z,9.79
2023-11-07T19:54:16.838Z,9.80
2023-11-07T19:56:43.314Z,8.48
2023-11-07T19:59:12.324Z,8.92
2023-11-07T20:01:39.242Z,9.43
2023-11-07T20:04:06.087Z,11.85
2023-11-07T20:06:32.750Z,9.78
2023-11-07T20:08:59.243Z,8.51
2023-11-07T20:11:25.811Z,9.21
2023-11-07T20:13:52.299Z,10.37
2023-11-07T20:16:18.794Z,9.35
2023-11-07T20:18:45.391Z,10.11
2023-11-07T20:21:14.782Z,11.58
2023-11-07T20:23:41.248Z,11.44
2023-11-07T20:26:07.784Z,10.54
2023-11-07T20:28:34.302Z,10.55
2023-11-07T20:31:00.764Z,11.46
2023-11-07T20:33:37.189Z,10.58
2023-11-07T20:36:11.044Z,11.65
2023-11-07T20:38:37.743Z,13.49
2023-11-07T20:41:04.277Z,13.45
2023-11-07T20:43:30.829Z,14.41
2023-11-07T20:45:57.258Z,14.63
2023-11-07T20:48:23.801Z,14.34
2023-11-07T20:50:50.339Z,13.19
2023-11-07T20:53:16.910Z,12.03
2023-11-07T20:55:43.417Z,11.60
2023-11-07T20:58:09.915Z,11.16
2023-11-07T21:00:36.442Z,11.49
2023-11-07T21:03:03.078Z,11.76
2023-11-07T21:05:29.655Z,11.84
2023-11-07T21:07:56.195Z,11.81
2023-11-07T21:10:22.654Z,12.05
2023-11-07T21:12:49.129Z,11.38
2023-11-07T21:15:15.609Z,12.85
2023-11-07T21:17:42.131Z,12.21
2023-11-07T21:20:08.785Z,12.55
2023-11-07T21:22:35.276Z,11.95
2023-11-07T21:25:01.980Z,11.21
2023-11-07T21:27:28.461Z,12.42
2023-11-07T21:29:54.997Z,12.68
2023-11-07T21:32:21.488Z,12.52
2023-11-07T21:34:47.937Z,11.92
2023-11-07T21:37:14.473Z,12.08
2023-11-07T21:39:40.948Z,12.39
2023-11-07T21:42:07.489Z,12.43
2023-11-07T21:44:33.993Z,12.29
2023-11-07T21:47:00.477Z,12.16
2023-11-07T21:49:27.140Z,12.71
2023-11-07T21:51:53.707Z,12.02
2023-11-07T21:54:20.210Z,12.77
2023-11-07T21:56:46.676Z,12.76
2023-11-07T21:59:13.146Z,13.59
2023-11-07T22:01:39.654Z,14.24
2023-11-07T22:04:06.106Z,13.65
2023-11-07T22:06:32.728Z,12.74
2023-11-07T22:08:59.454Z,11.55
2023-11-07T22:11:25.963Z,11.19
2023-11-07T22:13:52.422Z,11.31
2023-11-07T22:16:18.923Z,10.98
2023-11-07T22:18:45.456Z,10.79
2023-11-07T22:21:11.998Z,9.84
2023-11-07T22:23:38.547Z,9.68
2023-11-07T22:26:05.023Z,9.83
2023-11-07T22:28:31.798Z,10.89
2023-11-07T22:30:58.244Z,11.67
2023-11-07T22:33:24.799Z,10.67
2023-11-07T22:35:51.289Z,10.15
2023-11-07T22:38:17.735Z,11.05
2023-11-07T22:40:44.229Z,11.40
2023-11-07T22:43:10.675Z,11.43
2023-11-07T22:45:37.160Z,11.58
2023-11-07T22:48:03.709Z,11.29
2023-11-07T22:50:30.237Z,11.51
2023-11-07T22:52:56.707Z,11.77
2023-11-07T22:55:23.142Z,11.90
2023-11-07T22:57:49.654Z,11.71
2023-11-07T23:00:16.146Z,12.90
2023-11-07T23:02:42.672Z,12.48
2023-11-07T23:05:09.169Z,12.20
2023-11-07T23:07:35.699Z,11.99
2023-11-07T23:10:02.217Z,12.19
2023-11-07T23:12:28.712Z,12.19
2023-11-07T23:14:55.242Z,11.65
2023-11-07T23:17:21.739Z,11.49
2023-11-07T23:19:48.231Z,11.69
2023-11-07T23:22:14.766Z,11.59
2023-11-07T23:24:41.239Z,12.03
2023-11-07T23:27:07.873Z,12.10
2023-11-07T23:29:34.366Z,11.71
2023-11-07T23:32:00.910Z,11.62
2023-11-07T23:34:27.470Z,11.44
2023-11-07T23:36:53.971Z,11.24
2023-11-07T23:39:20.440Z,10.87
2023-11-07T23:41:46.867Z,10.57
2023-11-07T23:44:13.325Z,10.23
2023-11-07T23:46:41.742Z,10.26
2023-11-07T23:49:08.351Z,10.21
2023-11-07T23:51:34.808Z,9.97
2023-11-07T23:54:01.284Z,9.92
2023-11-07T23:56:27.786Z,9.60
2023-11-07T23:58:54.791Z,9.90
